To NAV CANADA Home Page Login to a new session Search on AWWS site Disclaimer Vers la page française équivalente Tips FAQ What's new on the site To the Forecasts and Observations / NOTAM section To "File a Flight Plan" website Publications and other links Update of the User's profile FIC Telephone Numbers My Weather Data Folder Route Weather Data Regional Weather Data Local Weather Data To the Forecasts and Observations / NOTAM section
Request Generated 07/10/2020 at 12:51:24 UTC . Weather information available at that time is displayed.

METAR/TAF

KITCHENER/WATERLOO/ON    (show WxCam)

METAR CYKF 101200Z AUTO 15007KT 9SM CLR 25/21 A2988 RMK SLP112 DENSITY ALT 2500FT=
METAR CYKF 101100Z AUTO 06003KT 8SM CLR 21/20 A2989 RMK SLP114 DENSITY ALT 2000FT=
METAR CYKF 101000Z AUTO 06003KT 9SM CLR 20/19 A2988 RMK SLP112 DENSITY ALT 1800FT=

TAF CYKF 100738Z 1008/1020 15007KT P6SM SKC TEMPO 1008/1012 11/2SM BR
FM101700 16012KT P6SM -SHRA BKN060 PROB30 1018/1020 2SM TSRA BR
BKN040CB
RMK FCST BASED ON AUTO OBS. NXT FCST BY 101400Z=

LONDON/ON    

METAR CYXU 101200Z 15008KT 15SM FEW250 25/22 A2986 RMK CI1 SLP106 DENSITY ALT 2400FT=
METAR CYXU 101100Z 14005KT 15SM FEW250 23/21 A2986 RMK CI1 SLP106 DENSITY ALT 2200FT=
METAR CYXU 101000Z 10004KT 15SM FEW220 FEW250 22/21 A2986 RMK CC1CI1 CC TR SLP105 DENSITY ALT 2000FT=

TAF CYXU 101139Z 1012/1112 VRB03KT P6SM SKC
FM101600 17012KT P6SM BKN050
FM102000 18010KT P6SM -SHRA BKN050 PROB30 1020/1023 2SM TSRA BR
BKN040CB
FM110200 18005KT 3SM -RA BR BKN008 OVC030 PROB30 1103/1106 3/4SM
+SHRA BR OVC002
FM110600 VRB03KT 1SM -RA -DZ BR OVC002
RMK NXT FCST BY 101800Z=

HAMILTON/ON    

METAR CYHM 101200Z 16010KT 15SM FEW240 26/22 A2987 RMK CI1 SLP111 DENSITY ALT 2300FT=
METAR CYHM 101100Z 15006KT 15SM FEW240 23/22 A2988 RMK CI1 SLP116 DENSITY ALT 2000FT=
METAR CYHM 101000Z 05004KT 15SM FEW240 21/20 A2988 RMK CI1 SLP114 DENSITY ALT 1700FT=

TAF CYHM 101139Z 1012/1112 12008KT P6SM FEW060 SCT240
FM101600 16010KT P6SM BKN050
FM110100 25008KT P6SM -SHRA BKN030
FM110800 25007KT 3SM -SHRA BR BKN008 OVC012
FM111000 VRB03KT 11/2SM -SHRA BR OVC004
RMK NXT FCST BY 101800Z=
Your time UTC time
Weather data provided by Environment Canada and NAV CANADA